sensor_id;sensor_type;location;lat;lon;timestamp;pressure;altitude;pressure_sealevel;temperature;humidity
52983;BME280;48698;45.736;13.926;2023-04-25T00:04:06;97029.38;;;5.36;100.00
52983;BME280;48698;45.736;13.926;2023-04-25T00:09:10;96967.53;;;4.81;100.00
52983;BME280;48698;45.736;13.926;2023-04-25T00:14:17;96985.94;;;4.81;100.00
52983;BME280;48698;45.736;13.926;2023-04-25T00:19:31;96850.19;;;3.88;100.00
52983;BME280;48698;45.736;13.926;2023-04-25T00:24:35;97021.22;;;4.77;100.00
52983;BME280;48698;45.736;13.926;2023-04-25T00:29:39;96975.63;;;4.76;100.00
52983;BME280;48698;45.736;13.926;2023-04-25T00:34:42;96930.00;;;4.77;100.00
52983;BME280;48698;45.736;13.926;2023-04-25T00:39:46;96998.47;;;5.19;100.00
52983;BME280;48698;45.736;13.926;2023-04-25T00:44:52;96946.09;;;4.46;100.00
52983;BME280;48698;45.736;13.926;2023-04-25T00:49:55;96989.47;;;4.35;100.00
52983;BME280;48698;45.736;13.926;2023-04-25T00:54:59;96997.16;;;4.41;100.00
52983;BME280;48698;45.736;13.926;2023-04-25T01:00:07;96877.72;;;4.01;100.00
52983;BME280;48698;45.736;13.926;2023-04-25T01:05:12;96932.75;;;4.51;100.00
52983;BME280;48698;45.736;13.926;2023-04-25T01:10:16;96961.97;;;4.88;100.00
52983;BME280;48698;45.736;13.926;2023-04-25T01:15:20;96990.38;;;5.02;100.00
52983;BME280;48698;45.736;13.926;2023-04-25T01:20:24;96989.66;;;4.98;100.00
52983;BME280;48698;45.736;13.926;2023-04-25T01:25:29;96786.41;;;4.72;100.00
52983;BME280;48698;45.736;13.926;2023-04-25T01:30:33;96952.44;;;6.30;100.00
52983;BME280;48698;45.736;13.926;2023-04-25T01:35:36;96757.69;;;5.85;100.00
52983;BME280;48698;45.736;13.926;2023-04-25T01:40:45;96942.25;;;7.33;100.00
52983;BME280;48698;45.736;13.926;2023-04-25T01:45:50;96954.56;;;7.51;100.00
52983;BME280;48698;45.736;13.926;2023-04-25T01:50:54;96776.00;;;6.61;100.00
52983;BME280;48698;45.736;13.926;2023-04-25T01:55:58;96856.91;;;6.97;100.00
52983;BME280;48698;45.736;13.926;2023-04-25T02:01:02;96972.22;;;7.68;100.00
52983;BME280;48698;45.736;13.926;2023-04-25T02:06:06;96970.09;;;7.57;100.00
52983;BME280;48698;45.736;13.926;2023-04-25T02:11:08;96713.94;;;6.18;100.00
52983;BME280;48698;45.736;13.926;2023-04-25T02:16:11;96960.63;;;7.70;100.00
52983;BME280;48698;45.736;13.926;2023-04-25T02:21:14;96933.09;;;7.74;100.00
52983;BME280;48698;45.736;13.926;2023-04-25T02:26:17;96932.31;;;7.72;100.00
52983;BME280;48698;45.736;13.926;2023-04-25T02:31:21;96804.75;;;6.85;100.00
52983;BME280;48698;45.736;13.926;2023-04-25T02:36:33;96938.53;;;7.54;100.00
52983;BME280;48698;45.736;13.926;2023-04-25T02:41:47;96852.31;;;6.29;100.00
52983;BME280;48698;45.736;13.926;2023-04-25T02:46:50;96800.59;;;5.89;100.00
52983;BME280;48698;45.736;13.926;2023-04-25T02:51:53;96934.41;;;6.77;100.00
52983;BME280;48698;45.736;13.926;2023-04-25T02:56:55;96943.25;;;6.95;100.00
52983;BME280;48698;45.736;13.926;2023-04-25T03:01:58;96676.97;;;4.69;100.00
52983;BME280;48698;45.736;13.926;2023-04-25T03:07:11;96957.69;;;6.69;100.00
52983;BME280;48698;45.736;13.926;2023-04-25T03:12:13;96698.13;;;5.44;100.00
52983;BME280;48698;45.736;13.926;2023-04-25T03:17:16;96909.03;;;6.74;100.00
52983;BME280;48698;45.736;13.926;2023-04-25T03:22:19;96751.38;;;5.89;100.00
52983;BME280;48698;45.736;13.926;2023-04-25T03:27:21;96652.28;;;4.92;100.00
52983;BME280;48698;45.736;13.926;2023-04-25T03:32:24;96916.41;;;6.49;100.00
52983;BME280;48698;45.736;13.926;2023-04-25T03:37:31;96915.97;;;5.81;100.00
52983;BME280;48698;45.736;13.926;2023-04-25T03:42:34;96915.25;;;5.57;100.00
52983;BME280;48698;45.736;13.926;2023-04-25T03:47:37;96823.72;;;4.81;100.00
52983;BME280;48698;45.736;13.926;2023-04-25T03:52:39;96803.31;;;4.44;100.00
52983;BME280;48698;45.736;13.926;2023-04-25T03:57:42;96894.97;;;5.18;100.00
52983;BME280;48698;45.736;13.926;2023-04-25T04:02:44;96938.09;;;5.36;100.00
52983;BME280;48698;45.736;13.926;2023-04-25T04:07:47;96640.69;;;3.73;100.00
52983;BME280;48698;45.736;13.926;2023-04-25T04:12:50;96866.13;;;4.74;100.00
52983;BME280;48698;45.736;13.926;2023-04-25T04:17:52;96679.16;;;3.96;100.00
52983;BME280;48698;45.736;13.926;2023-04-25T04:22:56;96737.53;;;4.04;100.00
52983;BME280;48698;45.736;13.926;2023-04-25T04:27:59;96904.47;;;5.01;100.00
52983;BME280;48698;45.736;13.926;2023-04-25T04:33:03;96664.25;;;3.75;100.00
52983;BME280;48698;45.736;13.926;2023-04-25T04:38:14;96830.41;;;5.10;100.00
52983;BME280;48698;45.736;13.926;2023-04-25T04:43:20;96955.81;;;6.52;100.00
52983;BME280;48698;45.736;13.926;2023-04-25T04:48:25;96787.56;;;5.65;100.00
52983;BME280;48698;45.736;13.926;2023-04-25T04:53:27;96861.13;;;5.90;100.00
52983;BME280;48698;45.736;13.926;2023-04-25T04:58:30;96964.22;;;6.60;100.00
52983;BME280;48698;45.736;13.926;2023-04-25T05:03:33;96870.22;;;6.22;100.00
52983;BME280;48698;45.736;13.926;2023-04-25T05:08:36;96877.56;;;6.53;100.00
52983;BME280;48698;45.736;13.926;2023-04-25T05:13:39;96843.81;;;6.59;100.00
52983;BME280;48698;45.736;13.926;2023-04-25T05:18:41;96923.94;;;7.47;100.00
52983;BME280;48698;45.736;13.926;2023-04-25T05:23:45;96682.31;;;6.18;100.00
52983;BME280;48698;45.736;13.926;2023-04-25T05:28:48;96803.97;;;7.34;100.00
52983;BME280;48698;45.736;13.926;2023-04-25T05:33:51;96762.03;;;7.28;100.00
52983;BME280;48698;45.736;13.926;2023-04-25T05:39:04;96873.22;;;8.23;100.00
52983;BME280;48698;45.736;13.926;2023-04-25T05:44:18;96873.34;;;8.38;100.00
52983;BME280;48698;45.736;13.926;2023-04-25T05:49:21;96754.06;;;7.78;100.00
52983;BME280;48698;45.736;13.926;2023-04-25T05:54:24;96865.19;;;8.58;100.00
52983;BME280;48698;45.736;13.926;2023-04-25T05:59:27;96771.03;;;7.90;100.00
52983;BME280;48698;45.736;13.926;2023-04-25T06:04:30;96769.03;;;7.95;100.00
52983;BME280;48698;45.736;13.926;2023-04-25T06:09:34;96744.09;;;7.99;100.00
52983;BME280;48698;45.736;13.926;2023-04-25T06:14:37;96744.44;;;7.93;100.00
52983;BME280;48698;45.736;13.926;2023-04-25T06:19:40;96836.81;;;8.75;100.00
52983;BME280;48698;45.736;13.926;2023-04-25T06:24:43;96760.69;;;8.49;100.00
52983;BME280;48698;45.736;13.926;2023-04-25T06:29:45;96580.44;;;7.49;100.00
52983;BME280;48698;45.736;13.926;2023-04-25T06:34:48;96657.06;;;8.57;100.00
52983;BME280;48698;45.736;13.926;2023-04-25T06:39:51;96818.22;;;9.95;100.00
52983;BME280;48698;45.736;13.926;2023-04-25T06:44:54;96789.03;;;9.95;100.00
52983;BME280;48698;45.736;13.926;2023-04-25T06:49:57;96792.28;;;10.00;100.00
52983;BME280;48698;45.736;13.926;2023-04-25T06:54:59;96753.81;;;9.93;100.00
52983;BME280;48698;45.736;13.926;2023-04-25T07:00:03;96815.06;;;10.45;100.00
52983;BME280;48698;45.736;13.926;2023-04-25T07:05:08;96861.38;;;11.08;100.00
52983;BME280;48698;45.736;13.926;2023-04-25T07:10:11;96760.47;;;10.94;100.00
52983;BME280;48698;45.736;13.926;2023-04-25T07:15:13;96803.75;;;10.96;100.00
52983;BME280;48698;45.736;13.926;2023-04-25T07:20:16;96637.28;;;10.04;100.00
52983;BME280;48698;45.736;13.926;2023-04-25T07:25:19;96806.75;;;10.77;100.00
52983;BME280;48698;45.736;13.926;2023-04-25T07:30:32;96739.00;;;10.31;100.00
52983;BME280;48698;45.736;13.926;2023-04-25T07:35:36;96819.81;;;10.80;100.00
52983;BME280;48698;45.736;13.926;2023-04-25T07:40:41;96921.69;;;11.47;100.00
52983;BME280;48698;45.736;13.926;2023-04-25T07:45:46;96798.84;;;10.63;100.00
52983;BME280;48698;45.736;13.926;2023-04-25T07:50:49;96707.59;;;9.68;100.00
52983;BME280;48698;45.736;13.926;2023-04-25T07:55:52;96849.19;;;9.80;100.00
52983;BME280;48698;45.736;13.926;2023-04-25T08:00:55;96902.84;;;10.13;100.00
52983;BME280;48698;45.736;13.926;2023-04-25T08:05:57;96830.22;;;9.72;100.00
52983;BME280;48698;45.736;13.926;2023-04-25T08:11:02;96636.50;;;8.46;100.00
52983;BME280;48698;45.736;13.926;2023-04-25T08:16:05;96666.53;;;8.61;100.00
52983;BME280;48698;45.736;13.926;2023-04-25T08:21:08;96979.84;;;10.56;100.00
52983;BME280;48698;45.736;13.926;2023-04-25T08:26:28;96980.72;;;10.56;100.00
52983;BME280;48698;45.736;13.926;2023-04-25T08:31:31;96961.56;;;10.37;100.00
52983;BME280;48698;45.736;13.926;2023-04-25T08:36:33;96964.66;;;10.29;100.00
52983;BME280;48698;45.736;13.926;2023-04-25T08:41:41;96903.06;;;9.95;100.00
52983;BME280;48698;45.736;13.926;2023-04-25T08:46:55;97035.72;;;10.68;100.00
52983;BME280;48698;45.736;13.926;2023-04-25T08:52:03;97016.75;;;10.74;100.00
52983;BME280;48698;45.736;13.926;2023-04-25T08:57:08;96971.84;;;10.27;100.00
52983;BME280;48698;45.736;13.926;2023-04-25T09:02:14;97016.38;;;10.66;100.00
52983;BME280;48698;45.736;13.926;2023-04-25T09:07:19;97002.59;;;10.74;100.00
52983;BME280;48698;45.736;13.926;2023-04-25T09:12:25;97018.28;;;10.78;100.00
52983;BME280;48698;45.736;13.926;2023-04-25T09:17:30;96913.00;;;10.21;100.00
52983;BME280;48698;45.736;13.926;2023-04-25T09:22:35;96783.06;;;9.63;100.00
52983;BME280;48698;45.736;13.926;2023-04-25T09:27:52;96999.94;;;10.88;100.00
52983;BME280;48698;45.736;13.926;2023-04-25T09:33:04;96942.00;;;10.38;100.00
52983;BME280;48698;45.736;13.926;2023-04-25T09:38:13;97028.13;;;11.05;100.00
52983;BME280;48698;45.736;13.926;2023-04-25T09:43:23;97034.78;;;11.12;100.00
52983;BME280;48698;45.736;13.926;2023-04-25T09:48:28;96860.88;;;9.62;100.00
52983;BME280;48698;45.736;13.926;2023-04-25T09:53:39;97011.59;;;10.57;100.00
52983;BME280;48698;45.736;13.926;2023-04-25T09:58:42;96847.28;;;9.38;100.00
52983;BME280;48698;45.736;13.926;2023-04-25T10:03:46;97024.22;;;10.68;100.00
52983;BME280;48698;45.736;13.926;2023-04-25T10:08:52;97036.94;;;10.63;100.00
52983;BME280;48698;45.736;13.926;2023-04-25T10:13:58;96861.00;;;9.15;100.00
52983;BME280;48698;45.736;13.926;2023-04-25T10:19:03;96965.56;;;10.14;100.00
52983;BME280;48698;45.736;13.926;2023-04-25T10:24:06;97015.06;;;10.73;100.00
52983;BME280;48698;45.736;13.926;2023-04-25T10:29:09;96988.97;;;10.66;100.00
52983;BME280;48698;45.736;13.926;2023-04-25T10:34:11;96869.88;;;10.46;100.00
52983;BME280;48698;45.736;13.926;2023-04-25T10:39:21;96851.69;;;10.54;100.00
52983;BME280;48698;45.736;13.926;2023-04-25T10:44:31;96962.22;;;11.24;100.00
52983;BME280;48698;45.736;13.926;2023-04-25T10:49:43;96958.13;;;10.92;100.00
52983;BME280;48698;45.736;13.926;2023-04-25T10:54:47;96972.44;;;11.03;100.00
52983;BME280;48698;45.736;13.926;2023-04-25T10:59:50;96820.19;;;9.91;100.00
52983;BME280;48698;45.736;13.926;2023-04-25T11:04:53;96921.09;;;10.33;100.00
52983;BME280;48698;45.736;13.926;2023-04-25T11:09:56;96625.72;;;8.79;100.00
52983;BME280;48698;45.736;13.926;2023-04-25T11:15:03;96943.44;;;10.72;100.00
52983;BME280;48698;45.736;13.926;2023-04-25T11:20:07;96873.56;;;10.57;100.00
52983;BME280;48698;45.736;13.926;2023-04-25T11:25:15;96672.78;;;9.60;100.00
52983;BME280;48698;45.736;13.926;2023-04-25T11:30:19;96948.72;;;11.27;100.00
52983;BME280;48698;45.736;13.926;2023-04-25T11:35:22;96944.69;;;11.21;100.00
52983;BME280;48698;45.736;13.926;2023-04-25T11:40:27;96905.84;;;10.92;100.00
52983;BME280;48698;45.736;13.926;2023-04-25T11:45:40;96696.63;;;9.60;100.00
52983;BME280;48698;45.736;13.926;2023-04-25T11:50:43;96930.28;;;10.97;100.00
52983;BME280;48698;45.736;13.926;2023-04-25T11:55:46;96786.84;;;10.01;100.00
52983;BME280;48698;45.736;13.926;2023-04-25T12:00:48;96952.44;;;10.83;100.00
52983;BME280;48698;45.736;13.926;2023-04-25T12:06:02;96958.50;;;10.57;100.00
52983;BME280;48698;45.736;13.926;2023-04-25T12:11:20;96962.50;;;10.36;100.00
52983;BME280;48698;45.736;13.926;2023-04-25T12:16:23;96725.44;;;8.78;100.00
52983;BME280;48698;45.736;13.926;2023-04-25T12:21:28;96785.03;;;9.01;100.00
52983;BME280;48698;45.736;13.926;2023-04-25T12:26:46;96860.88;;;9.62;100.00
52983;BME280;48698;45.736;13.926;2023-04-25T12:31:50;96907.59;;;10.22;100.00
52983;BME280;48698;45.736;13.926;2023-04-25T12:36:54;96904.22;;;10.05;100.00
52983;BME280;48698;45.736;13.926;2023-04-25T12:41:56;96937.84;;;10.48;100.00
52983;BME280;48698;45.736;13.926;2023-04-25T12:46:59;96640.50;;;8.53;100.00
52983;BME280;48698;45.736;13.926;2023-04-25T12:52:02;96764.13;;;9.69;100.00
52983;BME280;48698;45.736;13.926;2023-04-25T12:57:05;96638.09;;;8.78;100.00
52983;BME280;48698;45.736;13.926;2023-04-25T13:02:08;96781.84;;;10.11;100.00
52983;BME280;48698;45.736;13.926;2023-04-25T13:07:11;96646.47;;;9.57;100.00
52983;BME280;48698;45.736;13.926;2023-04-25T13:12:13;96855.66;;;10.87;100.00
52983;BME280;48698;45.736;13.926;2023-04-25T13:17:16;96883.25;;;11.26;100.00
52983;BME280;48698;45.736;13.926;2023-04-25T13:22:19;96698.44;;;10.29;100.00
52983;BME280;48698;45.736;13.926;2023-04-25T13:27:22;96878.88;;;11.64;100.00
52983;BME280;48698;45.736;13.926;2023-04-25T13:32:25;96826.19;;;11.05;100.00
52983;BME280;48698;45.736;13.926;2023-04-25T13:37:27;96751.56;;;10.95;100.00
52983;BME280;48698;45.736;13.926;2023-04-25T13:42:32;96795.84;;;11.21;100.00
52983;BME280;48698;45.736;13.926;2023-04-25T13:47:34;96541.66;;;10.19;100.00
52983;BME280;48698;45.736;13.926;2023-04-25T13:52:37;96700.31;;;11.45;100.00
52983;BME280;48698;45.736;13.926;2023-04-25T13:57:40;96713.69;;;11.31;100.00
52983;BME280;48698;45.736;13.926;2023-04-25T14:02:46;96603.25;;;10.89;100.00
52983;BME280;48698;45.736;13.926;2023-04-25T14:07:51;96531.06;;;10.57;100.00
52983;BME280;48698;45.736;13.926;2023-04-25T14:12:53;96828.25;;;12.54;100.00
52983;BME280;48698;45.736;13.926;2023-04-25T14:17:56;96744.25;;;11.63;100.00
52983;BME280;48698;45.736;13.926;2023-04-25T14:22:59;96768.31;;;12.00;100.00
52983;BME280;48698;45.736;13.926;2023-04-25T14:28:02;96699.03;;;11.63;100.00
52983;BME280;48698;45.736;13.926;2023-04-25T14:33:14;96507.72;;;10.62;100.00
52983;BME280;48698;45.736;13.926;2023-04-25T14:38:17;96734.00;;;11.57;100.00
52983;BME280;48698;45.736;13.926;2023-04-25T14:43:19;96530.34;;;10.55;100.00
52983;BME280;48698;45.736;13.926;2023-04-25T14:48:22;96648.81;;;10.96;100.00
52983;BME280;48698;45.736;13.926;2023-04-25T14:53:25;96777.31;;;12.10;100.00
52983;BME280;48698;45.736;13.926;2023-04-25T14:58:29;96821.38;;;12.26;100.00
52983;BME280;48698;45.736;13.926;2023-04-25T15:03:31;96579.22;;;11.16;100.00
52983;BME280;48698;45.736;13.926;2023-04-25T15:08:35;96786.72;;;12.52;100.00
52983;BME280;48698;45.736;13.926;2023-04-25T15:13:38;96693.28;;;12.78;100.00
52983;BME280;48698;45.736;13.926;2023-04-25T15:18:41;96604.56;;;12.89;100.00
52983;BME280;48698;45.736;13.926;2023-04-25T15:23:43;96696.56;;;12.58;100.00
52983;BME280;48698;45.736;13.926;2023-04-25T15:28:46;96719.13;;;12.65;100.00
52983;BME280;48698;45.736;13.926;2023-04-25T15:33:59;96827.59;;;13.47;100.00
52983;BME280;48698;45.736;13.926;2023-04-25T15:39:02;96647.41;;;13.21;100.00
52983;BME280;48698;45.736;13.926;2023-04-25T15:44:05;96538.28;;;12.38;100.00
52983;BME280;48698;45.736;13.926;2023-04-25T15:49:09;96522.50;;;12.59;100.00
52983;BME280;48698;45.736;13.926;2023-04-25T15:54:12;96718.78;;;13.96;100.00
52983;BME280;48698;45.736;13.926;2023-04-25T15:59:15;96796.69;;;14.02;100.00
52983;BME280;48698;45.736;13.926;2023-04-25T16:04:18;96746.28;;;13.64;100.00
52983;BME280;48698;45.736;13.926;2023-04-25T16:09:21;96730.44;;;13.84;100.00
52983;BME280;48698;45.736;13.926;2023-04-25T16:14:34;96539.69;;;12.55;100.00
52983;BME280;48698;45.736;13.926;2023-04-25T16:19:36;96774.66;;;13.30;100.00
52983;BME280;48698;45.736;13.926;2023-04-25T16:24:39;96512.13;;;11.61;100.00
52983;BME280;48698;45.736;13.926;2023-04-25T16:29:41;96673.06;;;12.52;100.00
52983;BME280;48698;45.736;13.926;2023-04-25T16:34:44;96755.38;;;13.03;100.00
52983;BME280;48698;45.736;13.926;2023-04-25T16:39:47;96742.06;;;13.03;100.00
52983;BME280;48698;45.736;13.926;2023-04-25T16:44:49;96601.44;;;12.36;100.00
52983;BME280;48698;45.736;13.926;2023-04-25T16:50:02;96719.88;;;13.26;100.00
52983;BME280;48698;45.736;13.926;2023-04-25T16:55:05;96792.31;;;14.23;100.00
52983;BME280;48698;45.736;13.926;2023-04-25T17:00:09;96548.53;;;13.35;100.00
52983;BME280;48698;45.736;13.926;2023-04-25T17:05:14;96667.50;;;14.58;100.00
52983;BME280;48698;45.736;13.926;2023-04-25T17:10:16;96561.09;;;13.77;100.00
52983;BME280;48698;45.736;13.926;2023-04-25T17:15:19;96653.03;;;12.70;100.00
52983;BME280;48698;45.736;13.926;2023-04-25T17:20:22;96822.47;;;12.96;100.00
52983;BME280;48698;45.736;13.926;2023-04-25T17:25:24;96847.88;;;12.28;100.00
52983;BME280;48698;45.736;13.926;2023-04-25T17:30:28;96818.63;;;12.15;100.00
52983;BME280;48698;45.736;13.926;2023-04-25T17:35:42;96826.38;;;11.80;100.00
52983;BME280;48698;45.736;13.926;2023-04-25T17:40:46;96894.66;;;12.19;100.00
52983;BME280;48698;45.736;13.926;2023-04-25T17:45:50;96883.63;;;11.73;100.00
52983;BME280;48698;45.736;13.926;2023-04-25T17:50:56;96891.25;;;11.65;100.00
52983;BME280;48698;45.736;13.926;2023-04-25T17:56:03;96918.69;;;12.30;100.00
52983;BME280;48698;45.736;13.926;2023-04-25T18:01:46;96941.38;;;12.23;100.00
52983;BME280;48698;45.736;13.926;2023-04-25T18:06:59;96938.66;;;11.85;100.00
52983;BME280;48698;45.736;13.926;2023-04-25T18:12:01;96956.91;;;11.24;100.00
52983;BME280;48698;45.736;13.926;2023-04-25T18:17:05;96977.88;;;11.28;100.00
52983;BME280;48698;45.736;13.926;2023-04-25T18:22:09;96979.72;;;11.14;100.00
52983;BME280;48698;45.736;13.926;2023-04-25T18:27:13;96939.72;;;10.88;100.00
52983;BME280;48698;45.736;13.926;2023-04-25T18:32:17;96964.81;;;11.11;100.00
52983;BME280;48698;45.736;13.926;2023-04-25T18:37:19;96997.38;;;11.15;100.00
52983;BME280;48698;45.736;13.926;2023-04-25T18:42:33;97018.09;;;11.10;100.00
52983;BME280;48698;45.736;13.926;2023-04-25T18:54:35;97018.81;;;10.55;100.00
52983;BME280;48698;45.736;13.926;2023-04-25T18:59:48;97035.38;;;10.30;100.00
52983;BME280;48698;45.736;13.926;2023-04-25T19:04:51;97026.06;;;10.08;100.00
52983;BME280;48698;45.736;13.926;2023-04-25T19:09:54;97051.78;;;10.07;100.00
52983;BME280;48698;45.736;13.926;2023-04-25T19:14:56;97056.53;;;8.75;100.00
52983;BME280;48698;45.736;13.926;2023-04-25T19:19:59;97020.34;;;8.43;100.00
52983;BME280;48698;45.736;13.926;2023-04-25T19:25:12;97083.19;;;8.55;100.00
52983;BME280;48698;45.736;13.926;2023-04-25T19:30:15;97111.38;;;8.56;100.00
52983;BME280;48698;45.736;13.926;2023-04-25T19:35:18;97015.69;;;7.44;100.00
52983;BME280;48698;45.736;13.926;2023-04-25T19:40:20;97122.13;;;7.64;100.00
52983;BME280;48698;45.736;13.926;2023-04-25T19:45:24;97127.47;;;7.82;100.00
52983;BME280;48698;45.736;13.926;2023-04-25T19:50:28;97085.50;;;7.19;100.00
52983;BME280;48698;45.736;13.926;2023-04-25T19:55:41;97025.00;;;7.15;100.00
52983;BME280;48698;45.736;13.926;2023-04-25T20:00:45;97087.09;;;7.42;100.00
52983;BME280;48698;45.736;13.926;2023-04-25T20:12:47;97059.28;;;6.59;100.00
52983;BME280;48698;45.736;13.926;2023-04-25T20:17:50;97090.16;;;6.96;100.00
52983;BME280;48698;45.736;13.926;2023-04-25T20:22:53;97083.59;;;7.04;100.00
52983;BME280;48698;45.736;13.926;2023-04-25T20:28:01;97108.66;;;7.14;100.00
52983;BME280;48698;45.736;13.926;2023-04-25T20:33:13;97125.97;;;7.20;100.00
52983;BME280;48698;45.736;13.926;2023-04-25T20:38:16;97142.06;;;7.34;100.00
52983;BME280;48698;45.736;13.926;2023-04-25T20:43:18;97101.72;;;7.12;100.00
52983;BME280;48698;45.736;13.926;2023-04-25T20:48:21;97128.91;;;7.14;100.00
52983;BME280;48698;45.736;13.926;2023-04-25T20:53:25;97138.28;;;6.82;100.00
52983;BME280;48698;45.736;13.926;2023-04-25T20:58:28;97115.66;;;6.56;100.00
52983;BME280;48698;45.736;13.926;2023-04-25T21:03:32;97158.84;;;6.94;100.00
52983;BME280;48698;45.736;13.926;2023-04-25T21:08:37;97170.25;;;6.34;100.00
52983;BME280;48698;45.736;13.926;2023-04-25T21:13:49;97127.47;;;6.28;100.00
52983;BME280;48698;45.736;13.926;2023-04-25T21:18:53;97179.16;;;6.10;100.00
52983;BME280;48698;45.736;13.926;2023-04-25T21:30:55;97174.84;;;5.87;100.00
52983;BME280;48698;45.736;13.926;2023-04-25T21:36:03;97028.94;;;5.03;100.00
52983;BME280;48698;45.736;13.926;2023-04-25T21:41:06;97197.97;;;5.79;100.00
52983;BME280;48698;45.736;13.926;2023-04-25T21:46:10;96888.75;;;3.88;100.00
52983;BME280;48698;45.736;13.926;2023-04-25T21:51:24;96904.91;;;4.24;100.00
52983;BME280;48698;45.736;13.926;2023-04-25T21:56:27;97151.28;;;5.83;100.00
52983;BME280;48698;45.736;13.926;2023-04-25T22:01:29;97119.59;;;5.62;100.00
52983;BME280;48698;45.736;13.926;2023-04-25T22:06:33;97164.94;;;5.70;100.00
52983;BME280;48698;45.736;13.926;2023-04-25T22:11:36;96978.31;;;4.28;100.00
52983;BME280;48698;45.736;13.926;2023-04-25T22:16:38;96874.38;;;3.50;100.00
52983;BME280;48698;45.736;13.926;2023-04-25T22:21:41;96919.53;;;3.59;100.00
52983;BME280;48698;45.736;13.926;2023-04-25T22:26:46;96917.63;;;3.64;100.00
52983;BME280;48698;45.736;13.926;2023-04-25T22:31:49;97118.75;;;4.71;100.00
52983;BME280;48698;45.736;13.926;2023-04-25T22:36:53;97044.25;;;4.22;100.00
52983;BME280;48698;45.736;13.926;2023-04-25T22:41:56;96907.19;;;3.61;100.00
52983;BME280;48698;45.736;13.926;2023-04-25T22:46:59;97188.78;;;4.98;100.00
52983;BME280;48698;45.736;13.926;2023-04-25T22:52:04;96962.19;;;3.41;100.00
52983;BME280;48698;45.736;13.926;2023-04-25T22:57:08;97240.97;;;4.85;100.00
52983;BME280;48698;45.736;13.926;2023-04-25T23:02:11;97251.41;;;5.13;100.00
52983;BME280;48698;45.736;13.926;2023-04-25T23:07:15;97157.78;;;3.81;100.00
52983;BME280;48698;45.736;13.926;2023-04-25T23:12:18;97229.34;;;4.41;100.00
52983;BME280;48698;45.736;13.926;2023-04-25T23:17:20;97215.50;;;4.10;100.00
52983;BME280;48698;45.736;13.926;2023-04-25T23:22:23;96986.78;;;2.55;100.00
52983;BME280;48698;45.736;13.926;2023-04-25T23:27:32;97223.44;;;4.35;100.00
52983;BME280;48698;45.736;13.926;2023-04-25T23:32:36;97101.41;;;3.64;100.00
52983;BME280;48698;45.736;13.926;2023-04-25T23:37:39;96986.09;;;3.32;100.00
52983;BME280;48698;45.736;13.926;2023-04-25T23:42:42;97207.59;;;4.62;100.00
52983;BME280;48698;45.736;13.926;2023-04-25T23:47:44;97195.47;;;4.32;100.00
52983;BME280;48698;45.736;13.926;2023-04-25T23:52:48;97189.19;;;3.84;100.00
52983;BME280;48698;45.736;13.926;2023-04-25T23:57:50;96876.28;;;1.53;100.00
